Time;durP1;ratioP1;P1;durP2;ratioP2;P2;SDS_P1;SDS_P2;PMS_P1;PMS_P2;Temp;Humidity;BMP_temperature;BMP_pressure;BME280_temperature;BME280_humidity;BME280_pressure;Samples;Min_cycle;Max_cycle;Signal;HPM_P1;HPM_P2
2023/10/21 00:00:30;;;;;;;14.60;6.40;;;13.70;98.50;;;;;;5005455;28;20458;-73
2023/10/21 00:02:55;;;;;;;13.40;6.38;;;13.70;98.40;;;;;;5014496;28;20030;-74
2023/10/21 00:05:21;;;;;;;13.90;6.57;;;13.70;98.50;;;;;;5017006;28;20644;-73
2023/10/21 00:07:47;;;;;;;18.23;6.13;;;13.70;98.50;;;;;;5016772;28;20115;-74
2023/10/21 00:10:12;;;;;;;13.13;6.10;;;13.70;98.50;;;;;;5019519;28;20114;-73
2023/10/21 00:12:38;;;;;;;14.07;6.07;;;13.70;98.50;;;;;;5008944;28;20591;-73
2023/10/21 00:15:08;;;;;;;11.27;5.88;;;13.70;98.50;;;;;;5019079;28;20041;-73
2023/10/21 00:17:34;;;;;;;12.32;6.18;;;13.70;98.50;;;;;;5007904;28;20146;-75
2023/10/21 00:20:00;;;;;;;11.32;5.53;;;13.70;98.50;;;;;;5013763;28;20516;-74
2023/10/21 00:22:29;;;;;;;12.15;6.00;;;13.70;98.50;;;;;;5014614;28;20045;-73
2023/10/21 00:24:55;;;;;;;22.45;6.65;;;13.70;98.50;;;;;;5013858;28;20041;-74
2023/10/21 00:27:21;;;;;;;14.15;6.28;;;13.70;98.40;;;;;;5007549;28;20026;-72
2023/10/21 00:29:46;;;;;;;13.68;6.75;;;13.60;98.50;;;;;;5012142;28;20044;-74
2023/10/21 00:32:12;;;;;;;13.30;6.00;;;13.70;98.50;;;;;;5010030;28;20101;-73
2023/10/21 00:34:40;;;;;;;15.27;6.30;;;13.70;98.50;;;;;;5010681;28;20036;-74
2023/10/21 00:37:07;;;;;;;13.05;5.93;;;13.60;98.50;;;;;;5015880;28;20045;-73
2023/10/21 00:39:37;;;;;;;15.65;6.53;;;13.60;98.50;;;;;;5013231;28;20018;-73
2023/10/21 00:42:06;;;;;;;14.90;6.38;;;13.60;98.60;;;;;;5004616;28;20050;-74
2023/10/21 00:44:32;;;;;;;12.85;6.95;;;13.70;98.60;;;;;;5015161;28;20053;-75
2023/10/21 00:46:59;;;;;;;10.38;6.03;;;13.70;98.60;;;;;;5007759;28;20061;-74
2023/10/21 00:49:25;;;;;;;15.15;6.35;;;13.70;98.60;;;;;;5010075;28;20021;-73
2023/10/21 00:51:51;;;;;;;14.75;6.80;;;13.70;98.60;;;;;;5008731;28;20037;-73
2023/10/21 00:54:17;;;;;;;12.82;6.22;;;13.70;98.70;;;;;;5012826;28;20062;-72
2023/10/21 00:56:43;;;;;;;17.20;6.80;;;13.70;98.60;;;;;;5014526;28;20497;-73
2023/10/21 00:59:11;;;;;;;14.57;6.85;;;13.70;98.70;;;;;;5011323;28;20033;-72
2023/10/21 01:01:37;;;;;;;16.48;7.05;;;13.70;98.60;;;;;;5014506;28;20041;-74
2023/10/21 01:04:04;;;;;;;16.20;7.40;;;13.70;98.60;;;;;;5009980;28;20400;-73
2023/10/21 01:06:31;;;;;;;14.65;6.78;;;13.60;98.70;;;;;;5015043;28;20036;-72
2023/10/21 01:08:57;;;;;;;15.23;6.72;;;13.60;98.60;;;;;;5010044;28;20021;-72
2023/10/21 01:11:22;;;;;;;15.05;6.30;;;13.60;98.60;;;;;;5008783;28;20034;-73
2023/10/21 01:13:50;;;;;;;14.98;6.97;;;13.60;98.60;;;;;;5015062;28;20041;-72
2023/10/21 01:16:16;;;;;;;19.73;6.85;;;13.60;98.70;;;;;;5010369;28;20038;-73
2023/10/21 01:18:42;;;;;;;14.55;6.75;;;13.50;98.70;;;;;;5009441;28;20040;-72
2023/10/21 01:21:09;;;;;;;12.45;6.18;;;13.50;98.70;;;;;;5011194;28;20046;-72
2023/10/21 01:23:35;;;;;;;15.68;6.45;;;13.50;98.70;;;;;;5009367;28;20038;-72
2023/10/21 01:26:01;;;;;;;18.63;7.07;;;13.50;98.70;;;;;;5022427;28;20494;-72
2023/10/21 01:28:28;;;;;;;13.63;6.40;;;13.40;98.70;;;;;;5012236;28;20157;-72
2023/10/21 01:30:55;;;;;;;14.50;6.45;;;13.40;98.70;;;;;;5008084;28;20494;-74
2023/10/21 01:33:21;;;;;;;15.70;6.45;;;13.40;98.80;;;;;;5000995;28;20117;-73
2023/10/21 01:35:46;;;;;;;12.40;6.07;;;13.40;98.80;;;;;;5005871;28;20034;-74
2023/10/21 01:38:12;;;;;;;13.52;6.32;;;13.40;98.80;;;;;;5013513;28;20022;-75
2023/10/21 01:40:38;;;;;;;14.40;6.45;;;13.30;98.80;;;;;;5008756;28;20042;-73
2023/10/21 01:43:04;;;;;;;14.35;5.90;;;13.30;98.80;;;;;;5010988;28;20751;-73
2023/10/21 01:45:29;;;;;;;17.50;6.45;;;13.30;98.80;;;;;;5006151;28;20034;-73
2023/10/21 01:47:55;;;;;;;13.30;5.53;;;13.30;98.80;;;;;;5008563;28;20044;-73
2023/10/21 01:50:21;;;;;;;18.88;6.05;;;13.30;98.90;;;;;;5012024;28;20057;-76
2023/10/21 01:52:46;;;;;;;16.23;6.40;;;13.30;98.90;;;;;;5011713;28;20131;-74
2023/10/21 01:55:12;;;;;;;19.50;6.65;;;13.30;98.80;;;;;;5012929;28;20030;-73
2023/10/21 01:57:38;;;;;;;15.23;6.10;;;13.20;98.80;;;;;;5019117;28;20099;-75
2023/10/21 02:00:08;;;;;;;14.57;5.72;;;13.20;98.80;;;;;;5002196;28;20087;-75
2023/10/21 02:02:37;;;;;;;18.23;5.80;;;13.20;98.90;;;;;;5001520;28;20029;-73
2023/10/21 02:05:04;;;;;;;14.35;5.82;;;13.10;98.90;;;;;;5016093;28;20046;-75
2023/10/21 02:07:31;;;;;;;13.98;5.32;;;13.20;98.90;;;;;;5012499;28;20029;-75
2023/10/21 02:09:57;;;;;;;12.88;5.35;;;13.10;99.00;;;;;;5015154;28;20038;-74
2023/10/21 02:12:22;;;;;;;14.60;5.70;;;13.20;99.00;;;;;;5004338;28;20041;-75
2023/10/21 02:14:48;;;;;;;12.60;6.10;;;13.20;98.90;;;;;;5007201;28;20029;-73
2023/10/21 02:17:14;;;;;;;13.88;6.10;;;13.20;99.10;;;;;;5000554;28;20398;-74
2023/10/21 02:19:39;;;;;;;14.38;6.28;;;13.20;99.10;;;;;;5015743;28;20144;-74
2023/10/21 02:22:05;;;;;;;12.65;5.93;;;13.30;99.10;;;;;;5013117;28;20060;-75
2023/10/21 02:24:35;;;;;;;13.88;6.18;;;13.30;99.10;;;;;;5004415;28;20103;-74
2023/10/21 02:27:02;;;;;;;14.43;6.22;;;13.40;99.10;;;;;;5003751;28;20022;-74
2023/10/21 02:29:27;;;;;;;13.55;6.00;;;13.50;99.00;;;;;;5010201;28;20025;-71
2023/10/21 02:31:53;;;;;;;15.50;6.43;;;13.50;98.90;;;;;;5004772;28;20041;-75
2023/10/21 02:34:19;;;;;;;19.70;6.60;;;13.60;98.80;;;;;;5009419;28;20677;-72
2023/10/21 02:36:45;;;;;;;14.73;6.18;;;13.60;98.70;;;;;;5005111;28;20040;-73
2023/10/21 02:39:11;;;;;;;13.77;6.57;;;13.60;98.70;;;;;;5010399;28;20033;-73
2023/10/21 02:41:37;;;;;;;15.68;6.85;;;13.60;98.60;;;;;;5007497;28;20034;-73
2023/10/21 02:44:03;;;;;;;12.00;6.32;;;13.70;98.50;;;;;;5010462;28;20466;-73
2023/10/21 02:46:29;;;;;;;12.18;6.57;;;13.70;98.40;;;;;;5004330;28;20053;-73
2023/10/21 02:48:54;;;;;;;13.40;6.50;;;13.70;98.30;;;;;;5016936;28;20030;-75
2023/10/21 02:51:20;;;;;;;12.00;6.15;;;13.70;98.20;;;;;;5010005;28;20041;-76
2023/10/21 02:53:46;;;;;;;13.80;6.80;;;13.80;98.20;;;;;;5006291;28;20033;-76
2023/10/21 02:56:15;;;;;;;14.82;6.80;;;13.80;98.10;;;;;;5007066;28;20065;-74
2023/10/21 02:58:41;;;;;;;15.30;6.75;;;13.80;98.00;;;;;;5001447;28;20025;-75
2023/10/21 03:01:20;;;;;;;14.40;6.45;;;13.90;98.00;;;;;;5008369;28;20045;-75
2023/10/21 03:03:48;;;;;;;15.35;7.03;;;13.80;97.90;;;;;;5004647;28;20033;-74
2023/10/21 03:06:15;;;;;;;14.95;7.45;;;13.80;97.80;;;;;;5007138;28;20042;-73
2023/10/21 03:08:41;;;;;;;16.25;6.47;;;13.80;97.80;;;;;;5006556;28;20029;-75
2023/10/21 03:11:08;;;;;;;12.10;6.30;;;13.80;97.70;;;;;;5002052;28;20041;-73
2023/10/21 03:13:35;;;;;;;15.35;6.80;;;13.70;97.70;;;;;;5008784;28;20399;-74
2023/10/21 03:16:05;;;;;;;14.27;6.90;;;13.70;97.80;;;;;;5005504;28;20034;-76
2023/10/21 03:18:31;;;;;;;13.85;6.13;;;13.80;97.90;;;;;;5013364;28;20022;-73
2023/10/21 03:20:56;;;;;;;12.10;5.90;;;13.80;97.90;;;;;;5001188;28;20564;-73
2023/10/21 03:23:23;;;;;;;12.30;5.97;;;13.80;97.90;;;;;;5008034;28;20034;-74
2023/10/21 03:26:02;;;;;;;13.85;5.93;;;13.80;97.90;;;;;;5008532;28;20038;-73
2023/10/21 03:28:28;;;;;;;14.05;7.20;;;13.90;97.90;;;;;;5007626;28;20554;-73
2023/10/21 03:30:58;;;;;;;14.85;6.50;;;13.90;97.90;;;;;;5006366;28;20079;-75
2023/10/21 03:33:25;;;;;;;12.02;6.07;;;13.90;97.80;;;;;;5006929;28;20029;-75
2023/10/21 03:36:01;;;;;;;15.05;6.47;;;14.00;97.80;;;;;;5006219;28;20065;-74
2023/10/21 03:38:27;;;;;;;15.02;6.30;;;14.00;97.60;;;;;;5007145;28;20436;-74
2023/10/21 03:41:04;;;;;;;14.05;6.13;;;14.10;97.60;;;;;;5010566;28;20037;-73
2023/10/21 03:43:30;;;;;;;16.02;7.35;;;14.10;97.50;;;;;;5001855;28;20030;-73
2023/10/21 03:45:56;;;;;;;11.73;5.88;;;14.10;97.40;;;;;;5016192;28;20029;-73
2023/10/21 03:48:22;;;;;;;13.80;6.43;;;14.10;97.50;;;;;;5011599;28;20087;-73
2023/10/21 03:50:50;;;;;;;13.43;5.40;;;14.10;97.50;;;;;;5014576;28;20022;-74
2023/10/21 03:53:16;;;;;;;12.88;5.47;;;14.10;97.40;;;;;;5016350;28;20060;-73
2023/10/21 03:55:43;;;;;;;20.70;6.43;;;14.10;97.50;;;;;;5008294;28;20080;-74
2023/10/21 03:58:10;;;;;;;14.93;6.28;;;14.10;97.50;;;;;;5007586;28;20085;-75
2023/10/21 04:00:36;;;;;;;10.93;5.82;;;14.10;97.40;;;;;;5011047;28;20026;-73
2023/10/21 04:03:02;;;;;;;14.60;5.28;;;14.10;97.30;;;;;;5020242;28;20398;-74
2023/10/21 04:05:28;;;;;;;13.43;6.20;;;14.10;97.30;;;;;;5006539;28;20034;-74
2023/10/21 04:07:55;;;;;;;12.95;5.38;;;14.20;97.40;;;;;;5013428;28;20347;-73
2023/10/21 04:10:21;;;;;;;15.25;5.22;;;14.20;97.10;;;;;;5008705;28;20033;-72
2023/10/21 04:12:47;;;;;;;13.15;5.25;;;14.20;97.10;;;;;;5008578;28;20034;-73
2023/10/21 04:15:13;;;;;;;13.18;5.60;;;14.20;97.00;;;;;;5008908;28;20092;-73
2023/10/21 04:17:39;;;;;;;11.35;5.25;;;14.30;96.90;;;;;;5009042;28;20037;-73
2023/10/21 04:20:06;;;;;;;13.75;5.60;;;14.30;96.90;;;;;;5015171;28;20153;-74
2023/10/21 04:22:31;;;;;;;11.65;5.03;;;14.30;96.90;;;;;;5014999;28;20054;-75
2023/10/21 04:24:57;;;;;;;9.43;5.05;;;14.30;96.90;;;;;;5011485;28;20037;-74
2023/10/21 04:27:23;;;;;;;12.85;4.88;;;14.30;96.90;;;;;;5000725;28;20061;-73
2023/10/21 04:29:49;;;;;;;11.43;4.72;;;14.30;96.80;;;;;;5007715;28;20033;-72
2023/10/21 04:32:15;;;;;;;11.30;4.35;;;14.30;96.70;;;;;;5010962;28;20144;-73
2023/10/21 04:34:41;;;;;;;8.75;4.45;;;14.30;96.60;;;;;;5011479;28;20049;-73
2023/10/21 04:37:06;;;;;;;10.63;4.40;;;14.30;96.40;;;;;;5009140;28;20033;-74
2023/10/21 04:39:33;;;;;;;9.05;4.20;;;14.30;96.40;;;;;;5014170;28;20021;-74
2023/10/21 04:41:59;;;;;;;9.60;4.30;;;14.30;96.20;;;;;;5009460;28;20034;-73
2023/10/21 04:44:24;;;;;;;10.30;4.35;;;14.30;96.10;;;;;;5009122;28;20152;-74
2023/10/21 04:46:50;;;;;;;9.45;4.20;;;14.30;96.10;;;;;;5002794;28;20057;-74
2023/10/21 04:49:16;;;;;;;26.13;5.03;;;14.30;95.90;;;;;;5000986;28;20108;-73
2023/10/21 04:51:41;;;;;;;9.23;4.13;;;14.30;95.90;;;;;;5014494;28;20065;-73
2023/10/21 04:54:08;;;;;;;8.50;3.65;;;14.20;95.90;;;;;;5003350;28;20084;-74
2023/10/21 04:56:34;;;;;;;13.18;4.63;;;14.30;95.90;;;;;;5011375;28;20473;-75
2023/10/21 04:58:59;;;;;;;10.57;4.20;;;14.20;95.90;;;;;;5016103;28;20032;-74
2023/10/21 05:01:25;;;;;;;7.25;3.38;;;14.20;95.80;;;;;;5004869;28;20053;-75
2023/10/21 05:03:51;;;;;;;10.73;3.85;;;14.20;95.90;;;;;;5015059;28;20137;-74
2023/10/21 05:06:17;;;;;;;5.72;2.80;;;14.20;95.90;;;;;;5013615;28;20049;-73
2023/10/21 05:08:43;;;;;;;13.32;3.65;;;14.20;95.90;;;;;;5008281;28;20037;-73
2023/10/21 05:11:09;;;;;;;6.00;2.85;;;14.20;95.90;;;;;;5017379;28;20107;-73
2023/10/21 05:13:34;;;;;;;8.93;3.00;;;14.20;95.80;;;;;;5007055;28;20030;-73
2023/10/21 05:16:00;;;;;;;8.43;3.28;;;14.20;95.80;;;;;;5013436;28;20120;-73
2023/10/21 05:18:26;;;;;;;8.63;2.53;;;14.20;95.90;;;;;;5009070;28;20033;-74
2023/10/21 05:20:52;;;;;;;8.20;2.85;;;14.20;95.80;;;;;;5011691;28;20068;-73
2023/10/21 05:23:18;;;;;;;6.60;2.58;;;14.20;95.70;;;;;;5013321;28;20044;-75
2023/10/21 05:25:44;;;;;;;6.78;2.95;;;14.20;95.90;;;;;;5010568;28;20048;-75
2023/10/21 05:28:10;;;;;;;6.82;2.63;;;14.10;95.90;;;;;;5007634;28;20029;-74
2023/10/21 05:30:37;;;;;;;5.78;2.40;;;14.10;96.00;;;;;;5003930;28;20371;-73
2023/10/21 05:33:04;;;;;;;6.13;2.40;;;14.10;96.20;;;;;;5003374;28;20045;-74
2023/10/21 05:35:30;;;;;;;5.85;1.85;;;14.00;96.40;;;;;;4999603;28;20044;-74
2023/10/21 05:37:55;;;;;;;4.45;1.70;;;13.90;96.40;;;;;;5005549;28;20117;-74
2023/10/21 05:40:21;;;;;;;4.88;1.60;;;13.80;96.40;;;;;;5012455;28;20120;-72
2023/10/21 05:42:47;;;;;;;7.22;2.03;;;13.80;96.50;;;;;;5010929;28;20069;-74
2023/10/21 05:45:12;;;;;;;5.45;1.70;;;13.80;96.60;;;;;;5016595;28;20115;-74
2023/10/21 05:47:38;;;;;;;5.80;1.73;;;13.70;96.80;;;;;;5004705;28;20025;-72
2023/10/21 05:50:05;;;;;;;2.88;1.60;;;13.60;96.90;;;;;;5017636;28;20110;-73
2023/10/21 05:52:31;;;;;;;4.10;1.50;;;13.60;97.00;;;;;;5008897;28;20049;-74
2023/10/21 05:54:56;;;;;;;4.40;1.60;;;13.60;96.90;;;;;;5000791;28;20065;-73
2023/10/21 05:57:22;;;;;;;5.40;1.75;;;13.60;96.90;;;;;;5010431;28;20030;-74
2023/10/21 05:59:48;;;;;;;3.97;1.52;;;13.50;96.70;;;;;;5012585;28;20033;-76
2023/10/21 06:02:14;;;;;;;5.90;1.70;;;13.60;96.70;;;;;;5006702;28;20033;-74
2023/10/21 06:04:39;;;;;;;5.45;1.80;;;13.50;96.40;;;;;;5005479;28;20022;-72
2023/10/21 06:07:05;;;;;;;6.22;1.90;;;13.50;96.20;;;;;;5002988;28;20124;-73
2023/10/21 06:09:31;;;;;;;6.13;1.58;;;13.50;96.00;;;;;;5011242;28;20104;-73
2023/10/21 06:11:57;;;;;;;4.10;1.73;;;13.50;95.70;;;;;;5010821;28;20505;-72
2023/10/21 06:14:22;;;;;;;4.15;1.40;;;13.50;95.40;;;;;;5009570;28;20052;-72
2023/10/21 06:16:48;;;;;;;5.20;1.42;;;13.50;95.30;;;;;;5008786;28;20109;-73
2023/10/21 06:19:16;;;;;;;2.35;1.17;;;13.50;95.20;;;;;;5015414;28;20287;-75
2023/10/21 06:21:41;;;;;;;3.90;1.42;;;13.50;94.80;;;;;;5005895;28;20050;-75
2023/10/21 06:24:07;;;;;;;3.92;1.33;;;13.50;94.40;;;;;;5013833;28;20092;-74
2023/10/21 06:26:33;;;;;;;4.32;1.30;;;13.50;94.20;;;;;;5009306;28;20033;-74
2023/10/21 06:29:00;;;;;;;3.67;1.45;;;13.40;94.30;;;;;;5010877;28;20052;-75
2023/10/21 06:31:26;;;;;;;4.97;1.40;;;13.40;94.10;;;;;;5008676;28;20029;-73
2023/10/21 06:33:53;;;;;;;5.10;1.25;;;13.50;93.90;;;;;;5003714;28;20481;-74
2023/10/21 06:36:19;;;;;;;1.45;1.02;;;13.50;93.60;;;;;;5004940;28;20630;-74
2023/10/21 06:38:45;;;;;;;3.00;1.23;;;13.40;93.40;;;;;;5006068;28;20061;-74
2023/10/21 06:41:11;;;;;;;4.20;1.20;;;13.40;93.20;;;;;;5007101;28;20065;-75
2023/10/21 06:43:37;;;;;;;2.45;1.08;;;13.40;93.00;;;;;;5004769;28;20033;-73
2023/10/21 06:46:03;;;;;;;4.07;1.23;;;13.50;93.00;;;;;;5000894;28;20636;-73
2023/10/21 06:48:29;;;;;;;4.85;1.63;;;13.50;92.90;;;;;;5013236;28;22082;-76
2023/10/21 06:50:55;;;;;;;4.68;1.30;;;13.50;92.80;;;;;;5000663;28;20045;-75
2023/10/21 06:53:21;;;;;;;3.00;1.30;;;13.50;92.70;;;;;;5007281;28;20034;-76
2023/10/21 06:55:49;;;;;;;3.45;1.35;;;13.50;92.70;;;;;;5000368;28;20091;-74
2023/10/21 06:58:14;;;;;;;4.03;1.20;;;13.50;92.60;;;;;;5006505;28;20108;-72
2023/10/21 07:00:40;;;;;;;3.10;1.30;;;13.40;92.60;;;;;;5004279;28;20128;-72
2023/10/21 07:03:06;;;;;;;4.57;1.35;;;13.50;92.50;;;;;;5000181;28;20030;-73
2023/10/21 07:05:32;;;;;;;4.22;1.27;;;13.50;92.50;;;;;;5002904;28;20037;-74
2023/10/21 07:07:57;;;;;;;4.10;1.20;;;13.60;92.40;;;;;;5004461;28;20018;-74
2023/10/21 07:10:23;;;;;;;6.45;1.52;;;13.60;92.40;;;;;;5004402;28;20030;-74
2023/10/21 07:12:51;;;;;;;5.22;1.45;;;13.60;92.20;;;;;;4996313;28;20026;-74
2023/10/21 07:15:17;;;;;;;4.07;1.38;;;13.60;92.00;;;;;;5007321;28;20040;-72
2023/10/21 07:17:42;;;;;;;4.45;1.60;;;13.60;91.90;;;;;;5007972;28;20018;-71
2023/10/21 07:20:08;;;;;;;6.03;1.55;;;13.60;91.50;;;;;;5002143;28;20103;-72
2023/10/21 07:22:35;;;;;;;3.85;1.33;;;13.50;91.10;;;;;;5001146;28;20050;-72
2023/10/21 07:25:02;;;;;;;4.30;1.42;;;13.50;91.30;;;;;;5003378;28;20061;-73
2023/10/21 07:27:28;;;;;;;3.60;1.30;;;13.50;91.20;;;;;;5005641;28;20072;-74
2023/10/21 07:29:57;;;;;;;5.97;1.45;;;13.50;91.00;;;;;;5005186;28;20040;-74
2023/10/21 07:32:23;;;;;;;5.85;1.58;;;13.50;91.00;;;;;;4999868;28;20085;-72
2023/10/21 07:34:50;;;;;;;6.47;1.55;;;13.50;90.80;;;;;;5009538;28;20038;-73
2023/10/21 07:37:15;;;;;;;5.95;1.98;;;13.60;90.20;;;;;;5004519;28;20030;-72
2023/10/21 07:39:41;;;;;;;5.30;1.30;;;13.60;90.20;;;;;;5004337;28;20537;-72
2023/10/21 07:42:09;;;;;;;6.47;1.52;;;13.60;90.50;;;;;;5006163;28;20045;-74
2023/10/21 07:44:34;;;;;;;7.38;1.60;;;13.60;90.40;;;;;;5003039;28;20038;-73
2023/10/21 07:47:00;;;;;;;6.28;1.50;;;13.60;90.50;;;;;;4993348;28;20440;-73
2023/10/21 07:49:26;;;;;;;4.95;1.92;;;13.70;90.30;;;;;;4996326;28;20109;-72
2023/10/21 07:51:51;;;;;;;7.95;1.95;;;13.80;89.70;;;;;;5002313;28;20026;-72
2023/10/21 07:54:17;;;;;;;7.72;1.80;;;13.80;89.40;;;;;;4997474;28;20026;-72
2023/10/21 07:56:45;;;;;;;8.50;1.70;;;13.90;89.50;;;;;;5006532;28;20625;-70
2023/10/21 07:59:11;;;;;;;8.65;1.60;;;13.90;89.20;;;;;;4992922;28;20045;-72
2023/10/21 08:01:37;;;;;;;6.22;1.85;;;13.90;89.20;;;;;;5000212;28;20208;-73
2023/10/21 08:04:04;;;;;;;7.63;1.80;;;14.00;88.90;;;;;;5009401;28;20073;-73
2023/10/21 08:06:30;;;;;;;8.98;2.28;;;14.00;88.60;;;;;;5000380;28;20495;-73
2023/10/21 08:08:56;;;;;;;7.63;1.85;;;14.10;88.40;;;;;;5001214;28;20029;-73
2023/10/21 08:11:22;;;;;;;7.80;2.00;;;14.10;88.20;;;;;;5004148;28;20041;-72
2023/10/21 08:13:48;;;;;;;10.90;1.90;;;14.10;88.40;;;;;;5008318;28;20045;-74
2023/10/21 08:16:13;;;;;;;7.07;1.83;;;14.20;87.80;;;;;;5003671;28;20296;-73
2023/10/21 08:18:40;;;;;;;9.88;2.25;;;14.30;87.80;;;;;;5007457;28;20032;-70
2023/10/21 08:21:06;;;;;;;5.97;1.92;;;14.50;87.20;;;;;;4999062;28;21566;-74
2023/10/21 08:23:31;;;;;;;7.35;1.67;;;14.40;87.20;;;;;;5001047;28;20038;-74
2023/10/21 08:26:00;;;;;;;7.82;1.77;;;14.40;87.00;;;;;;5002509;28;20072;-74
2023/10/21 08:28:25;;;;;;;7.47;1.85;;;14.30;86.90;;;;;;5009328;28;20079;-74
2023/10/21 08:30:51;;;;;;;7.88;2.08;;;14.40;87.10;;;;;;4999912;28;20042;-73
2023/10/21 08:33:17;;;;;;;8.48;2.10;;;14.40;86.70;;;;;;5008196;28;20075;-74
2023/10/21 08:35:43;;;;;;;9.15;2.17;;;14.40;86.40;;;;;;5007587;28;20520;-73
2023/10/21 08:38:09;;;;;;;6.38;1.73;;;14.40;86.70;;;;;;5013681;28;20518;-71
2023/10/21 08:40:38;;;;;;;8.75;2.53;;;14.40;86.80;;;;;;5011438;28;20041;-74
2023/10/21 08:43:04;;;;;;;8.80;2.20;;;14.50;86.40;;;;;;5001582;28;20029;-72
2023/10/21 08:45:35;;;;;;;7.88;2.50;;;14.40;86.30;;;;;;5006278;28;20034;-73
2023/10/21 08:48:01;;;;;;;7.25;1.70;;;14.40;86.30;;;;;;5011639;28;20080;-71
2023/10/21 08:50:27;;;;;;;8.60;2.33;;;14.60;86.50;;;;;;5004732;28;20037;-71
2023/10/21 08:52:54;;;;;;;6.22;1.98;;;14.50;86.40;;;;;;5013028;28;20888;-71
2023/10/21 08:55:22;;;;;;;7.70;2.00;;;14.50;86.30;;;;;;5010226;28;20038;-71
2023/10/21 08:57:48;;;;;;;5.93;1.50;;;14.50;86.30;;;;;;5006475;28;20060;-72
2023/10/21 09:00:14;;;;;;;8.77;2.00;;;14.60;85.90;;;;;;5000435;28;20527;-74
2023/10/21 09:02:40;;;;;;;8.88;2.00;;;14.60;86.00;;;;;;5017539;28;20048;-74
2023/10/21 09:05:12;;;;;;;8.10;1.90;;;14.60;85.60;;;;;;5006299;28;20121;-73
2023/10/21 09:07:46;;;;;;;10.27;1.75;;;14.50;85.80;;;;;;5007785;28;20092;-74
2023/10/21 09:10:12;;;;;;;7.45;1.35;;;14.60;86.00;;;;;;5004101;28;20038;-74
2023/10/21 09:12:38;;;;;;;8.75;2.15;;;14.60;86.10;;;;;;5005719;28;20042;-74
2023/10/21 09:15:05;;;;;;;8.15;2.05;;;14.60;85.80;;;;;;5006553;28;20052;-72
2023/10/21 09:17:39;;;;;;;9.77;2.28;;;14.50;85.80;;;;;;5007938;28;20056;-72
2023/10/21 09:20:16;;;;;;;5.72;1.88;;;14.50;86.20;;;;;;5005513;28;20129;-73
2023/10/21 09:22:44;;;;;;;8.02;2.10;;;14.50;85.90;;;;;;5000761;28;20546;-72
2023/10/21 09:25:20;;;;;;;10.15;2.42;;;14.60;86.10;;;;;;5009823;28;20037;-71
2023/10/21 09:27:53;;;;;;;10.88;2.35;;;14.70;85.40;;;;;;5009260;28;20044;-72
2023/10/21 09:30:21;;;;;;;10.02;2.10;;;14.90;85.40;;;;;;5009796;28;20040;-72
2023/10/21 09:32:47;;;;;;;13.05;3.05;;;15.00;84.90;;;;;;5004418;28;20034;-72
2023/10/21 09:35:30;;;;;;;8.30;2.20;;;15.00;84.90;;;;;;5008005;28;20041;-74
2023/10/21 09:37:56;;;;;;;10.90;2.13;;;15.10;84.40;;;;;;5017065;28;20018;-73
2023/10/21 09:40:25;;;;;;;12.27;2.83;;;15.10;84.80;;;;;;5008072;28;20053;-73
2023/10/21 09:42:56;;;;;;;9.07;2.50;;;15.10;84.70;;;;;;5004504;28;20061;-73
2023/10/21 09:45:24;;;;;;;9.18;2.53;;;15.10;84.60;;;;;;4999351;28;20479;-73
2023/10/21 09:47:52;;;;;;;11.98;2.67;;;15.10;84.70;;;;;;5005466;28;20592;-73
2023/10/21 09:50:18;;;;;;;11.32;2.60;;;15.20;84.20;;;;;;5003212;28;20057;-71
2023/10/21 09:53:01;;;;;;;9.00;2.42;;;15.10;84.00;;;;;;5006689;28;20025;-72
2023/10/21 09:55:31;;;;;;;11.85;2.42;;;15.10;84.00;;;;;;4997678;28;20109;-71
2023/10/21 09:57:58;;;;;;;10.20;2.70;;;15.00;84.20;;;;;;5010981;28;20048;-74
2023/10/21 10:00:27;;;;;;;11.15;2.33;;;15.10;84.00;;;;;;5005874;28;20042;-75
2023/10/21 10:02:54;;;;;;;12.23;3.05;;;15.10;83.90;;;;;;5005163;28;20090;-73
2023/10/21 10:05:21;;;;;;;10.77;2.85;;;15.00;84.00;;;;;;5009269;28;20038;-73
2023/10/21 10:07:48;;;;;;;12.50;3.35;;;15.00;84.40;;;;;;5003714;28;20033;-75
2023/10/21 10:10:21;;;;;;;16.77;3.30;;;15.10;84.40;;;;;;5006716;28;20030;-73
2023/10/21 10:12:52;;;;;;;15.55;3.08;;;15.00;84.90;;;;;;5003918;28;20045;-73
2023/10/21 10:15:34;;;;;;;14.75;2.83;;;15.00;84.60;;;;;;5004434;28;20042;-73
2023/10/21 10:18:08;;;;;;;12.05;2.88;;;15.00;84.60;;;;;;5002514;28;20048;-73
2023/10/21 10:20:43;;;;;;;16.60;3.57;;;15.10;84.80;;;;;;5006873;28;20033;-72
2023/10/21 10:23:09;;;;;;;14.95;3.22;;;15.10;84.60;;;;;;5006041;28;20381;-74
2023/10/21 10:25:42;;;;;;;16.75;4.30;;;15.10;85.10;;;;;;5005016;28;20045;-73
2023/10/21 10:28:08;;;;;;;14.02;2.88;;;15.00;85.20;;;;;;5010277;28;20763;-73
2023/10/21 10:30:43;;;;;;;12.55;3.25;;;15.00;85.80;;;;;;5003423;28;20034;-73
2023/10/21 10:33:12;;;;;;;;;;;15.00;86.40;;;;;;5001320;28;20390;-74
2023/10/21 10:35:52;;;;;;;17.15;3.08;;;14.90;86.70;;;;;;5005721;28;19917;-72
2023/10/21 10:38:27;;;;;;;13.02;3.03;;;14.90;87.50;;;;;;5007754;28;20037;-74
2023/10/21 10:41:38;;;;;;;16.33;4.95;;;14.60;88.00;;;;;;5001499;28;20587;-73
2023/10/21 10:44:03;;;;;;;15.37;3.67;;;14.40;88.70;;;;;;5005597;28;20627;-74
2023/10/21 10:46:31;;;;;;;16.40;3.38;;;14.30;89.80;;;;;;5006455;28;20034;-73
2023/10/21 10:49:05;;;;;;;16.00;3.53;;;14.20;90.20;;;;;;5006380;28;20152;-74
2023/10/21 10:51:43;;;;;;;20.10;4.15;;;14.10;90.20;;;;;;4997476;28;20079;-73
2023/10/21 10:54:14;;;;;;;16.33;3.15;;;14.10;90.80;;;;;;5000342;28;20558;-74
2023/10/21 10:56:43;;;;;;;17.95;3.85;;;14.00;90.90;;;;;;4995934;28;20125;-73
2023/10/21 10:59:14;;;;;;;17.00;3.90;;;14.10;90.90;;;;;;5003697;28;20033;-73
2023/10/21 11:01:39;;;;;;;15.55;3.90;;;14.10;91.00;;;;;;4999188;28;20038;-73
2023/10/21 11:04:05;;;;;;;16.83;3.47;;;14.00;91.10;;;;;;5004465;28;20080;-74
2023/10/21 11:06:37;;;;;;;17.33;4.03;;;14.10;91.60;;;;;;5003408;28;20669;-74
2023/10/21 11:09:19;;;;;;;16.80;3.45;;;14.10;91.50;;;;;;4994674;28;20026;-73
2023/10/21 11:11:54;;;;;;;17.05;3.60;;;14.00;91.50;;;;;;5004620;28;20045;-73
2023/10/21 11:14:20;;;;;;;14.30;3.70;;;14.00;92.00;;;;;;4997173;28;20053;-74
2023/10/21 11:16:50;;;;;;;17.00;3.63;;;13.90;92.20;;;;;;5001244;28;20045;-75
2023/10/21 11:19:16;;;;;;;12.02;3.67;;;13.90;92.50;;;;;;5009128;28;20043;-73
2023/10/21 11:21:43;;;;;;;19.48;3.97;;;13.70;92.70;;;;;;5002882;28;20077;-74
2023/10/21 11:24:10;;;;;;;12.27;3.53;;;13.70;93.00;;;;;;5011349;28;20033;-75
2023/10/21 11:26:36;;;;;;;17.85;3.80;;;13.70;93.10;;;;;;5004619;28;20034;-74
2023/10/21 11:29:05;;;;;;;20.17;4.88;;;13.70;93.30;;;;;;5004526;28;20383;-73
2023/10/21 11:31:31;;;;;;;15.23;5.05;;;13.60;93.50;;;;;;5003072;28;20475;-75
2023/10/21 11:34:16;;;;;;;18.67;4.05;;;13.60;93.80;;;;;;5005165;28;20062;-73
2023/10/21 11:36:48;;;;;;;16.70;4.25;;;13.60;93.80;;;;;;4996688;28;20049;-73
2023/10/21 11:39:18;;;;;;;14.68;4.50;;;13.60;94.00;;;;;;4999963;28;20112;-73
2023/10/21 11:41:47;;;;;;;17.25;4.22;;;13.50;94.10;;;;;;5000443;28;20586;-73
2023/10/21 11:44:15;;;;;;;14.80;4.32;;;13.40;94.20;;;;;;4998556;28;20042;-74
2023/10/21 11:46:41;;;;;;;13.57;3.50;;;13.40;94.30;;;;;;4994981;28;20041;-74
2023/10/21 11:49:13;;;;;;;17.45;3.45;;;13.40;94.40;;;;;;4997374;28;20034;-73
2023/10/21 11:51:43;;;;;;;18.45;4.30;;;13.50;94.70;;;;;;5005460;28;20400;-73
2023/10/21 11:54:17;;;;;;;15.82;3.88;;;13.40;94.40;;;;;;5002810;28;20060;-73
2023/10/21 11:57:00;;;;;;;14.20;3.08;;;13.40;94.50;;;;;;5001386;28;20041;-74
2023/10/21 12:39:46;;;;;;;18.13;3.40;;;13.30;95.20;;;;;;5000489;28;20095;-74
2023/10/21 12:45:20;;;;;;;13.90;3.55;;;13.30;95.20;;;;;;4971465;28;20057;-74
2023/10/21 12:47:50;;;;;;;18.95;3.80;;;13.30;95.10;;;;;;5005760;28;20026;-74
2023/10/21 12:50:16;;;;;;;16.75;4.15;;;13.40;95.10;;;;;;5007752;28;20486;-74
2023/10/21 12:52:46;;;;;;;16.80;4.03;;;13.40;94.90;;;;;;5007954;28;20018;-73
2023/10/21 12:55:13;;;;;;;19.17;3.47;;;13.30;95.10;;;;;;4991812;28;20052;-75
2023/10/21 12:57:40;;;;;;;22.83;5.10;;;13.40;95.00;;;;;;4994722;28;20021;-73
2023/10/21 13:00:07;;;;;;;15.40;3.78;;;13.50;95.10;;;;;;5000365;28;20262;-74
2023/10/21 13:02:35;;;;;;;20.33;4.03;;;13.50;95.10;;;;;;5001528;28;20483;-73
2023/10/21 13:05:03;;;;;;;18.13;4.68;;;13.60;95.00;;;;;;5004597;28;20030;-74
2023/10/21 13:07:31;;;;;;;19.55;4.22;;;13.60;95.00;;;;;;5000271;28;20122;-74
2023/10/21 13:09:58;;;;;;;16.23;4.00;;;13.50;95.10;;;;;;5008874;28;20034;-73
2023/10/21 13:12:24;;;;;;;17.00;5.18;;;13.40;95.30;;;;;;5006097;28;20029;-73
2023/10/21 13:14:50;;;;;;;28.27;9.80;;;13.40;95.40;;;;;;5001966;28;20671;-74
2023/10/21 13:17:17;;;;;;;25.27;10.02;;;13.20;95.60;;;;;;5005871;28;20100;-71
2023/10/21 13:19:43;;;;;;;17.83;3.78;;;13.20;95.80;;;;;;5005363;28;20038;-73
2023/10/21 13:22:08;;;;;;;15.38;4.03;;;13.20;95.80;;;;;;5002915;28;20391;-72
2023/10/21 13:24:34;;;;;;;17.52;3.47;;;13.20;96.00;;;;;;5006139;28;20742;-73